createdAt,value
2023-01-13T00:00:27.444Z,7.21
2023-01-13T00:02:55.278Z,7.24
2023-01-13T00:05:25.769Z,7.21
2023-01-13T00:07:53.519Z,7.21
2023-01-13T00:10:21.245Z,7.21
2023-01-13T00:12:48.999Z,7.21
2023-01-13T00:15:16.733Z,7.21
2023-01-13T00:17:44.461Z,7.23
2023-01-13T00:20:12.884Z,7.27
2023-01-13T00:22:41.969Z,7.26
2023-01-13T00:25:10.452Z,7.33
2023-01-13T00:27:38.187Z,7.35
2023-01-13T00:30:09.136Z,7.36
2023-01-13T00:32:36.825Z,7.38
2023-01-13T00:35:04.965Z,7.36
2023-01-13T00:37:32.670Z,7.36
2023-01-13T00:40:01.761Z,7.36
2023-01-13T00:42:47.011Z,7.36
2023-01-13T00:45:14.779Z,7.41
2023-01-13T00:47:42.492Z,7.41
2023-01-13T00:50:11.821Z,7.41
2023-01-13T00:52:41.906Z,7.46
2023-01-13T00:55:11.496Z,7.45
2023-01-13T00:57:40.203Z,7.49
2023-01-13T01:00:09.435Z,7.53
2023-01-13T01:02:37.254Z,7.55
2023-01-13T01:05:05.497Z,7.53
2023-01-13T01:07:33.202Z,7.50
2023-01-13T01:10:00.933Z,7.51
2023-01-13T01:12:29.993Z,7.57
2023-01-13T01:14:57.758Z,7.55
2023-01-13T01:17:25.479Z,7.54
2023-01-13T01:19:53.176Z,7.53
2023-01-13T01:22:20.856Z,7.52
2023-01-13T01:24:48.789Z,7.53
2023-01-13T01:27:16.502Z,7.52
2023-01-13T01:29:45.564Z,7.49
2023-01-13T01:32:13.269Z,7.50
2023-01-13T01:34:41.035Z,7.45
2023-01-13T01:37:08.755Z,7.43
2023-01-13T01:39:36.494Z,7.45
2023-01-13T01:42:21.816Z,7.44
2023-01-13T01:45:02.099Z,7.46
2023-01-13T01:47:30.743Z,7.48
2023-01-13T01:49:58.946Z,7.49
2023-01-13T01:52:30.548Z,7.53
2023-01-13T01:55:00.970Z,7.61
2023-01-13T01:57:31.961Z,7.63
2023-01-13T02:00:01.456Z,7.65
2023-01-13T02:02:29.543Z,7.63
2023-01-13T02:04:57.323Z,7.66
2023-01-13T02:07:28.445Z,7.66
2023-01-13T02:09:57.631Z,7.64
2023-01-13T02:12:32.298Z,7.65
2023-01-13T02:15:04.247Z,7.65
2023-01-13T02:17:41.507Z,7.65
2023-01-13T02:20:34.039Z,7.66
2023-01-13T02:23:37.229Z,7.70
2023-01-13T02:26:16.635Z,7.73
2023-01-13T02:29:19.603Z,7.71
2023-01-13T02:31:49.821Z,7.71
2023-01-13T02:34:23.026Z,7.72
2023-01-13T02:36:54.291Z,7.72
2023-01-13T02:39:26.188Z,7.72
2023-01-13T02:42:14.124Z,7.76
2023-01-13T02:44:44.914Z,7.77
2023-01-13T02:47:18.865Z,7.78
2023-01-13T02:49:48.965Z,7.79
2023-01-13T02:52:21.622Z,7.81
2023-01-13T02:54:54.121Z,7.83
2023-01-13T02:57:22.128Z,7.85
2023-01-13T02:59:50.360Z,7.87
2023-01-13T03:02:20.982Z,7.89
2023-01-13T03:04:54.285Z,7.92
2023-01-13T03:07:38.268Z,7.92
2023-01-13T03:10:11.683Z,7.94
2023-01-13T03:12:45.528Z,7.96
2023-01-13T03:15:18.882Z,7.97
2023-01-13T03:17:52.655Z,7.95
2023-01-13T03:20:23.487Z,7.98
2023-01-13T03:22:55.169Z,8.00
2023-01-13T03:25:25.663Z,8.04
2023-01-13T03:27:58.020Z,8.18
2023-01-13T03:30:30.850Z,8.16
2023-01-13T03:33:03.261Z,8.15
2023-01-13T03:35:33.200Z,8.20
2023-01-13T03:38:04.439Z,8.24
2023-01-13T03:40:34.995Z,8.27
2023-01-13T03:43:23.685Z,8.25
2023-01-13T03:45:56.085Z,8.28
2023-01-13T03:48:27.722Z,8.32
2023-01-13T03:50:57.830Z,8.36
2023-01-13T03:53:28.288Z,8.38
2023-01-13T03:55:59.424Z,8.37
2023-01-13T03:58:30.467Z,8.37
2023-01-13T04:01:00.048Z,8.37
2023-01-13T04:03:34.370Z,8.38
2023-01-13T04:06:09.809Z,8.34
2023-01-13T04:08:38.419Z,8.31
2023-01-13T04:11:08.431Z,8.30
2023-01-13T04:13:38.436Z,8.31
2023-01-13T04:16:07.704Z,8.31
2023-01-13T04:18:38.907Z,8.31
2023-01-13T04:21:07.317Z,8.38
2023-01-13T04:23:35.176Z,8.39
2023-01-13T04:26:02.787Z,8.37
2023-01-13T04:28:30.361Z,8.36
2023-01-13T04:30:58.033Z,8.40
2023-01-13T04:33:25.670Z,8.41
2023-01-13T04:35:55.193Z,8.43
2023-01-13T04:38:23.464Z,8.48
2023-01-13T04:40:51.140Z,8.52
2023-01-13T04:43:18.711Z,8.50
2023-01-13T04:45:46.418Z,8.51
2023-01-13T04:48:14.359Z,8.53
2023-01-13T04:50:42.608Z,8.52
2023-01-13T04:53:11.727Z,8.52
2023-01-13T04:55:39.429Z,8.53
2023-01-13T04:58:09.160Z,8.56
2023-01-13T05:00:37.394Z,8.55
2023-01-13T05:03:05.454Z,8.56
2023-01-13T05:05:33.237Z,8.55
2023-01-13T05:08:01.083Z,8.54
2023-01-13T05:10:30.113Z,8.57
2023-01-13T05:13:15.154Z,8.58
2023-01-13T05:16:00.662Z,8.62
2023-01-13T05:18:29.258Z,8.63
2023-01-13T05:20:56.887Z,8.64
2023-01-13T05:23:42.261Z,8.66
2023-01-13T05:26:11.283Z,8.70
2023-01-13T05:28:38.879Z,8.71
2023-01-13T05:31:06.961Z,8.68
2023-01-13T05:33:35.831Z,8.70
2023-01-13T05:36:04.534Z,8.71
2023-01-13T05:38:32.327Z,8.74
2023-01-13T05:41:18.061Z,8.75
2023-01-13T05:43:47.206Z,8.75
2023-01-13T05:46:14.949Z,8.75
2023-01-13T05:48:44.377Z,8.79
2023-01-13T05:51:13.616Z,8.79
2023-01-13T05:53:41.791Z,8.81
2023-01-13T05:56:10.546Z,8.79
2023-01-13T05:58:38.494Z,8.82
2023-01-13T06:01:09.052Z,8.79
2023-01-13T06:03:37.147Z,8.77
2023-01-13T06:06:05.174Z,8.79
2023-01-13T06:08:33.261Z,8.76
2023-01-13T06:11:01.064Z,8.74
2023-01-13T06:13:28.884Z,8.72
2023-01-13T06:15:58.231Z,8.72
2023-01-13T06:18:28.055Z,8.68
2023-01-13T06:20:56.241Z,8.68
2023-01-13T06:23:24.149Z,8.73
2023-01-13T06:25:57.113Z,8.74
2023-01-13T06:28:24.843Z,8.70
2023-01-13T06:30:55.638Z,8.71
2023-01-13T06:33:28.142Z,8.70
2023-01-13T06:35:58.489Z,8.70
2023-01-13T06:38:27.372Z,8.64
2023-01-13T06:40:55.442Z,8.64
2023-01-13T06:43:22.201Z,8.61
2023-01-13T06:45:51.730Z,8.65
2023-01-13T06:48:20.349Z,8.62
2023-01-13T06:50:49.571Z,8.58
2023-01-13T06:53:17.265Z,8.58
2023-01-13T06:55:45.001Z,8.53
2023-01-13T06:58:12.766Z,8.51
2023-01-13T07:00:40.663Z,8.47
2023-01-13T07:03:10.816Z,8.42
2023-01-13T07:05:38.774Z,8.37
2023-01-13T07:08:08.331Z,8.40
2023-01-13T07:10:37.227Z,8.39
2023-01-13T07:13:23.644Z,8.37
2023-01-13T07:15:56.234Z,8.33
2023-01-13T07:18:24.390Z,8.34
2023-01-13T07:20:56.050Z,8.34
2023-01-13T07:23:25.605Z,8.32
2023-01-13T07:25:53.411Z,8.30
2023-01-13T07:28:21.355Z,8.29
2023-01-13T07:30:49.102Z,8.29
2023-01-13T07:33:18.460Z,8.30
2023-01-13T07:35:46.662Z,8.30
2023-01-13T07:38:14.569Z,8.30
2023-01-13T07:40:43.539Z,8.33
2023-01-13T07:43:30.597Z,8.33
2023-01-13T07:45:59.607Z,8.39
2023-01-13T07:48:27.547Z,8.43
2023-01-13T07:50:55.396Z,8.40
2023-01-13T07:53:24.917Z,8.39
2023-01-13T07:55:56.254Z,8.38
2023-01-13T07:58:24.322Z,8.41
2023-01-13T08:00:52.019Z,8.42
2023-01-13T08:03:19.823Z,8.40
2023-01-13T08:05:47.660Z,8.43
2023-01-13T08:08:15.726Z,8.47
2023-01-13T08:10:43.441Z,8.48
2023-01-13T08:13:20.049Z,8.52
2023-01-13T08:15:50.104Z,8.53
2023-01-13T08:18:20.879Z,8.55
2023-01-13T08:20:49.605Z,8.56
2023-01-13T08:23:17.415Z,8.60
2023-01-13T08:25:45.352Z,8.65
2023-01-13T08:28:15.192Z,8.74
2023-01-13T08:30:43.690Z,8.77
2023-01-13T08:33:13.006Z,8.78
2023-01-13T08:35:42.165Z,8.82
2023-01-13T08:38:10.347Z,8.84
2023-01-13T08:40:39.816Z,8.87
2023-01-13T08:43:07.577Z,8.87
2023-01-13T08:45:37.157Z,8.90
2023-01-13T08:48:05.560Z,8.93
2023-01-13T08:50:33.323Z,8.94
2023-01-13T08:53:01.297Z,8.99
2023-01-13T08:55:29.157Z,9.03
2023-01-13T08:58:13.988Z,9.05
2023-01-13T09:00:44.979Z,9.08
2023-01-13T09:03:12.862Z,9.10
2023-01-13T09:05:40.584Z,9.15
2023-01-13T09:08:08.276Z,9.22
2023-01-13T09:10:36.868Z,9.24
2023-01-13T09:13:12.473Z,9.28
2023-01-13T09:15:41.373Z,9.32
2023-01-13T09:18:10.576Z,9.37
2023-01-13T09:20:38.423Z,9.37
2023-01-13T09:23:09.748Z,9.41
2023-01-13T09:25:37.992Z,9.44
2023-01-13T09:28:06.183Z,9.43
2023-01-13T09:30:33.989Z,9.48
2023-01-13T09:33:19.108Z,9.47
2023-01-13T09:35:48.439Z,9.52
2023-01-13T09:38:16.216Z,9.55
2023-01-13T09:40:44.698Z,9.61
2023-01-13T09:43:36.842Z,9.67
2023-01-13T09:46:28.575Z,9.77
2023-01-13T09:48:57.564Z,9.89
2023-01-13T09:51:31.836Z,9.95
2023-01-13T09:54:01.900Z,10.04
2023-01-13T09:56:29.651Z,10.17
2023-01-13T09:58:57.299Z,10.22
2023-01-13T10:01:28.644Z,10.24
2023-01-13T10:03:56.415Z,10.30
2023-01-13T10:06:33.415Z,10.40
2023-01-13T10:09:01.340Z,10.51
2023-01-13T10:11:50.022Z,10.51
2023-01-13T10:14:20.712Z,10.47
2023-01-13T10:16:52.677Z,10.44
2023-01-13T10:19:24.474Z,10.42
2023-01-13T10:22:16.852Z,10.46
2023-01-13T10:25:03.655Z,10.47
2023-01-13T10:27:34.798Z,10.57
2023-01-13T10:30:12.891Z,10.66
2023-01-13T10:32:43.081Z,10.75
2023-01-13T10:35:11.000Z,10.82
2023-01-13T10:37:40.377Z,10.85
2023-01-13T10:40:18.555Z,10.92
2023-01-13T10:42:46.526Z,10.95
2023-01-13T10:45:25.609Z,10.94
2023-01-13T10:48:07.613Z,10.94
2023-01-13T10:50:36.867Z,10.88
2023-01-13T10:53:18.982Z,10.81
2023-01-13T10:56:00.224Z,10.77
2023-01-13T10:58:28.828Z,10.68
2023-01-13T11:01:01.384Z,10.67
2023-01-13T11:03:37.016Z,10.68
2023-01-13T11:06:05.246Z,10.66
2023-01-13T11:08:45.472Z,10.71
2023-01-13T11:11:44.227Z,10.74
2023-01-13T11:14:50.956Z,10.69
2023-01-13T11:17:35.661Z,10.48
2023-01-13T11:20:08.485Z,10.34
2023-01-13T11:22:39.261Z,10.17
2023-01-13T11:25:11.572Z,10.04
2023-01-13T11:27:45.451Z,9.97
2023-01-13T11:30:22.353Z,9.95
2023-01-13T11:33:05.269Z,9.89
2023-01-13T11:35:35.450Z,9.89
2023-01-13T11:38:08.172Z,9.96
2023-01-13T11:40:40.290Z,10.08
2023-01-13T11:43:13.152Z,10.18
2023-01-13T11:45:44.626Z,10.25
2023-01-13T11:48:16.451Z,10.20
2023-01-13T11:50:51.012Z,10.20
2023-01-13T11:53:33.536Z,10.18
2023-01-13T11:56:11.908Z,10.11
2023-01-13T11:59:03.179Z,10.05
2023-01-13T12:01:46.227Z,10.01
2023-01-13T12:04:23.171Z,10.04
2023-01-13T12:06:55.302Z,9.95
2023-01-13T12:09:31.172Z,9.91
2023-01-13T12:12:20.622Z,9.91
2023-01-13T12:14:59.707Z,9.74
2023-01-13T12:17:33.313Z,9.70
2023-01-13T12:20:13.962Z,9.61
2023-01-13T12:22:43.281Z,9.51
2023-01-13T12:25:20.844Z,9.39
2023-01-13T12:27:54.163Z,9.28
2023-01-13T12:30:25.948Z,9.21
2023-01-13T12:32:55.735Z,9.22
2023-01-13T12:35:34.970Z,9.23
2023-01-13T12:38:05.501Z,9.22
2023-01-13T12:40:47.102Z,9.22
2023-01-13T12:43:37.243Z,9.23
2023-01-13T12:46:57.249Z,9.24
2023-01-13T12:49:27.849Z,9.19
2023-01-13T12:52:12.704Z,9.24
2023-01-13T12:55:02.944Z,9.32
2023-01-13T12:57:33.856Z,9.32
2023-01-13T13:00:17.301Z,9.28
2023-01-13T13:03:23.964Z,9.25
2023-01-13T13:05:57.843Z,9.22
2023-01-13T13:08:32.406Z,9.24
2023-01-13T13:11:38.425Z,9.28
2023-01-13T13:14:06.724Z,9.42
2023-01-13T13:16:50.415Z,9.45
2023-01-13T13:19:46.658Z,9.42
2023-01-13T13:22:19.691Z,9.51
2023-01-13T13:25:20.988Z,9.63
2023-01-13T13:27:54.221Z,9.70
2023-01-13T13:30:25.800Z,9.77
2023-01-13T13:33:04.007Z,9.79
2023-01-13T13:35:52.294Z,9.79
2023-01-13T13:38:45.953Z,9.77
2023-01-13T13:41:33.096Z,9.59
2023-01-13T13:44:19.685Z,9.58
2023-01-13T13:46:48.714Z,9.50
2023-01-13T13:49:19.217Z,9.48
2023-01-13T13:51:50.296Z,9.37
2023-01-13T13:54:19.820Z,9.34
2023-01-13T13:56:48.728Z,9.29
2023-01-13T13:59:19.668Z,9.28
2023-01-13T14:01:53.512Z,9.17
2023-01-13T14:04:25.718Z,9.21
2023-01-13T14:06:55.053Z,9.24
2023-01-13T14:09:25.231Z,9.10
2023-01-13T14:11:58.290Z,8.05
2023-01-13T14:14:26.301Z,6.76
2023-01-13T14:16:54.925Z,6.08
2023-01-13T14:19:34.749Z,5.83
2023-01-13T14:22:04.660Z,5.74
2023-01-13T14:24:32.825Z,5.59
2023-01-13T14:27:10.666Z,5.46
2023-01-13T14:29:38.573Z,5.48
2023-01-13T14:32:06.694Z,5.56
2023-01-13T14:34:35.983Z,5.37
2023-01-13T14:37:04.059Z,5.33
2023-01-13T14:39:38.797Z,5.37
2023-01-13T14:42:12.996Z,5.43
2023-01-13T14:44:45.456Z,5.35
2023-01-13T14:47:22.934Z,5.55
2023-01-13T14:50:02.523Z,5.67
2023-01-13T14:52:31.969Z,5.73
2023-01-13T14:55:29.894Z,5.81
2023-01-13T14:58:24.998Z,5.80
2023-01-13T15:00:54.299Z,5.64
2023-01-13T15:03:22.381Z,5.69
2023-01-13T15:05:52.839Z,5.72
2023-01-13T15:08:36.693Z,5.60
2023-01-13T15:11:06.130Z,5.67
2023-01-13T15:13:38.542Z,5.76
2023-01-13T15:16:08.351Z,5.75
2023-01-13T15:18:39.990Z,5.73
2023-01-13T15:21:09.567Z,5.67
2023-01-13T15:23:37.364Z,5.72
2023-01-13T15:26:05.452Z,5.77
2023-01-13T15:28:33.330Z,5.80
2023-01-13T15:31:03.746Z,5.76
2023-01-13T15:33:32.059Z,5.71
2023-01-13T15:35:59.725Z,5.70
2023-01-13T15:38:28.810Z,5.69
2023-01-13T15:40:56.508Z,5.66
2023-01-13T15:43:42.455Z,5.65
2023-01-13T15:46:33.058Z,5.56
2023-01-13T15:49:09.712Z,5.53
2023-01-13T15:51:38.824Z,5.46
2023-01-13T15:54:08.104Z,5.45
2023-01-13T15:56:37.276Z,5.43
2023-01-13T15:59:05.475Z,5.38
2023-01-13T16:01:33.140Z,5.41
2023-01-13T16:04:00.831Z,5.39
2023-01-13T16:06:32.573Z,5.28
2023-01-13T16:09:01.281Z,5.16
2023-01-13T16:11:31.052Z,5.24
2023-01-13T16:13:58.860Z,5.27
2023-01-13T16:16:28.679Z,5.31
2023-01-13T16:18:56.893Z,5.33
2023-01-13T16:21:24.630Z,5.30
2023-01-13T16:23:52.611Z,5.27
2023-01-13T16:26:22.839Z,5.28
2023-01-13T16:28:54.035Z,5.33
2023-01-13T16:31:27.194Z,5.38
2023-01-13T16:33:55.048Z,5.39
2023-01-13T16:36:23.484Z,5.46
2023-01-13T16:38:52.538Z,5.49
2023-01-13T16:41:20.449Z,5.54
2023-01-13T16:43:48.267Z,5.60
2023-01-13T16:46:21.045Z,5.70
2023-01-13T16:48:49.554Z,5.78
2023-01-13T16:51:17.431Z,5.84
2023-01-13T16:53:45.385Z,5.89
2023-01-13T16:56:24.726Z,5.94
2023-01-13T16:58:53.196Z,5.97
2023-01-13T17:01:25.771Z,6.03
2023-01-13T17:03:54.172Z,6.07
2023-01-13T17:06:24.357Z,6.10
2023-01-13T17:08:53.138Z,6.16
2023-01-13T17:11:22.034Z,6.20
2023-01-13T17:13:49.745Z,6.21
2023-01-13T17:16:19.863Z,6.23
2023-01-13T17:18:49.214Z,6.25
2023-01-13T17:21:17.327Z,6.29
2023-01-13T17:23:45.059Z,6.29
2023-01-13T17:26:29.498Z,6.32
2023-01-13T17:28:57.160Z,6.34
2023-01-13T17:31:24.891Z,6.30
2023-01-13T17:33:57.365Z,6.31
2023-01-13T17:36:30.459Z,6.34
2023-01-13T17:38:58.652Z,6.35
2023-01-13T17:41:27.215Z,6.40
2023-01-13T17:43:55.291Z,6.47
2023-01-13T17:46:42.196Z,6.48
2023-01-13T17:49:26.543Z,6.51
2023-01-13T17:51:56.679Z,6.54
2023-01-13T17:54:25.047Z,6.52
2023-01-13T17:57:08.650Z,6.53
2023-01-13T18:00:27.290Z,6.52
2023-01-13T18:02:55.446Z,6.46
2023-01-13T18:05:28.152Z,6.44
2023-01-13T18:08:02.052Z,6.37
2023-01-13T18:10:32.511Z,6.35
2023-01-13T18:13:18.085Z,6.22
2023-01-13T18:16:03.789Z,6.15
2023-01-13T18:18:34.479Z,6.05
2023-01-13T18:21:24.205Z,6.00
2023-01-13T18:24:11.434Z,5.89
2023-01-13T18:26:56.609Z,5.80
2023-01-13T18:29:39.257Z,5.71
2023-01-13T18:32:09.049Z,5.66
2023-01-13T18:34:36.967Z,5.60
2023-01-13T18:37:07.284Z,5.45
2023-01-13T18:39:37.505Z,5.38
2023-01-13T18:42:22.889Z,5.33
2023-01-13T18:44:50.783Z,5.28
2023-01-13T18:47:19.148Z,5.27
2023-01-13T18:49:47.400Z,5.24
2023-01-13T18:52:16.688Z,5.20
2023-01-13T18:54:44.568Z,5.11
2023-01-13T18:57:12.841Z,5.08
2023-01-13T18:59:40.971Z,5.01
2023-01-13T19:02:16.612Z,4.98
2023-01-13T19:04:44.499Z,5.00
2023-01-13T19:07:13.416Z,4.96
2023-01-13T19:09:43.251Z,4.89
2023-01-13T19:12:14.677Z,4.89
2023-01-13T19:14:44.708Z,4.89
2023-01-13T19:17:46.918Z,4.86
2023-01-13T19:20:14.552Z,4.83
2023-01-13T19:22:42.415Z,4.82
2023-01-13T19:25:11.520Z,4.79
2023-01-13T19:27:39.870Z,4.77
2023-01-13T19:30:08.841Z,4.78
2023-01-13T19:32:36.403Z,4.77
2023-01-13T19:35:04.119Z,4.77
2023-01-13T19:37:33.718Z,4.79
2023-01-13T19:40:01.367Z,4.80
2023-01-13T19:42:48.224Z,4.80
2023-01-13T19:45:30.676Z,4.82
2023-01-13T19:48:00.825Z,4.81
2023-01-13T19:50:28.482Z,4.82
2023-01-13T19:52:56.095Z,4.84
2023-01-13T19:55:23.788Z,4.85
2023-01-13T19:57:52.810Z,4.86
2023-01-13T20:00:21.853Z,4.91
2023-01-13T20:02:51.757Z,4.83
2023-01-13T20:05:22.356Z,4.79
2023-01-13T20:07:51.088Z,4.80
2023-01-13T20:10:20.365Z,4.81
2023-01-13T20:12:48.162Z,4.82
2023-01-13T20:15:17.331Z,4.81
2023-01-13T20:17:44.941Z,4.80
2023-01-13T20:20:13.568Z,4.76
2023-01-13T20:22:41.313Z,4.70
2023-01-13T20:25:10.244Z,4.68
2023-01-13T20:27:37.918Z,4.72
2023-01-13T20:30:09.443Z,4.72
2023-01-13T20:32:38.517Z,4.66
2023-01-13T20:35:08.164Z,4.54
2023-01-13T20:37:35.832Z,4.49
2023-01-13T20:40:04.970Z,4.49
2023-01-13T20:42:42.260Z,4.48
2023-01-13T20:45:10.838Z,4.54
2023-01-13T20:47:39.798Z,4.53
2023-01-13T20:50:08.509Z,4.56
2023-01-13T20:52:38.441Z,4.56
2023-01-13T20:55:07.320Z,4.54
2023-01-13T20:57:35.175Z,4.33
2023-01-13T21:00:03.939Z,4.20
2023-01-13T21:02:31.836Z,3.98
2023-01-13T21:05:01.088Z,3.94
2023-01-13T21:07:28.988Z,4.02
2023-01-13T21:09:57.475Z,4.06
2023-01-13T21:12:42.973Z,3.90
2023-01-13T21:15:18.252Z,3.88
2023-01-13T21:18:04.274Z,3.75
2023-01-13T21:20:34.504Z,3.79
2023-01-13T21:23:03.287Z,3.75
2023-01-13T21:25:31.402Z,3.67
2023-01-13T21:28:03.249Z,3.63
2023-01-13T21:30:31.116Z,3.57
2023-01-13T21:33:00.740Z,3.51
2023-01-13T21:35:28.397Z,3.47
2023-01-13T21:37:57.889Z,3.42
2023-01-13T21:40:25.579Z,3.45
2023-01-13T21:43:11.209Z,3.39
2023-01-13T21:45:57.407Z,3.31
2023-01-13T21:48:25.117Z,3.18
2023-01-13T21:50:53.159Z,3.09
2023-01-13T21:53:22.308Z,3.10
2023-01-13T21:55:51.531Z,3.09
2023-01-13T21:58:19.135Z,3.05
2023-01-13T22:00:49.256Z,2.99
2023-01-13T22:03:18.508Z,2.96
2023-01-13T22:05:47.175Z,2.87
2023-01-13T22:08:14.825Z,2.90
2023-01-13T22:10:57.943Z,2.82
2023-01-13T22:13:58.658Z,2.75
2023-01-13T22:16:26.852Z,2.74
2023-01-13T22:18:54.536Z,2.73
2023-01-13T22:21:22.168Z,2.67
2023-01-13T22:23:49.825Z,2.62
2023-01-13T22:26:19.135Z,2.60
2023-01-13T22:28:46.795Z,2.56
2023-01-13T22:31:15.517Z,2.54
2023-01-13T22:33:46.971Z,2.52
2023-01-13T22:36:15.179Z,2.51
2023-01-13T22:38:42.788Z,2.54
2023-01-13T22:41:10.802Z,2.52
2023-01-13T22:43:40.738Z,2.50
2023-01-13T22:46:33.149Z,2.46
2023-01-13T22:49:02.199Z,2.49
2023-01-13T22:51:30.630Z,2.44
2023-01-13T22:53:59.333Z,2.46
2023-01-13T22:56:34.197Z,2.49
2023-01-13T22:59:04.930Z,2.47
2023-01-13T23:01:33.906Z,2.46
2023-01-13T23:04:01.766Z,2.52
2023-01-13T23:06:30.902Z,2.54
2023-01-13T23:08:58.615Z,2.53
2023-01-13T23:11:27.512Z,2.54
2023-01-13T23:13:58.669Z,2.53
2023-01-13T23:16:28.969Z,2.53
2023-01-13T23:18:56.860Z,2.52
2023-01-13T23:21:27.250Z,2.54
2023-01-13T23:23:55.578Z,2.54
2023-01-13T23:26:23.983Z,2.56
2023-01-13T23:28:51.861Z,2.57
2023-01-13T23:31:21.042Z,2.58
2023-01-13T23:33:50.098Z,2.62
2023-01-13T23:36:19.901Z,2.66
2023-01-13T23:38:48.839Z,2.72
2023-01-13T23:41:17.748Z,2.78
2023-01-13T23:43:45.479Z,2.78
2023-01-13T23:46:16.515Z,2.80
2023-01-13T23:48:44.314Z,2.80
2023-01-13T23:51:14.419Z,2.79
2023-01-13T23:53:44.889Z,2.78
2023-01-13T23:56:14.710Z,2.79
2023-01-13T23:58:42.741Z,2.78
